sensor_id;sensor_type;location;lat;lon;timestamp;temperature;humidity
43579;DHT22;29174;44.640;10.896;2024-03-02T17:12:01;22.40;68.90
43579;DHT22;29174;44.640;10.896;2024-03-02T17:16:53;29.30;48.70
43579;DHT22;29174;44.640;10.896;2024-03-02T17:19:18;25.10;86.80
43579;DHT22;29174;44.640;10.896;2024-03-02T17:21:44;24.90;69.30
43579;DHT22;29174;44.640;10.896;2024-03-02T17:24:10;23.80;76.90
43579;DHT22;29174;44.640;10.896;2024-03-02T17:32:26;21.10;90.50
43579;DHT22;29174;44.640;10.896;2024-03-02T17:34:53;20.70;92.10
43579;DHT22;29174;44.640;10.896;2024-03-02T17:37:19;20.50;93.00
43579;DHT22;29174;44.640;10.896;2024-03-02T17:39:44;20.30;93.60
43579;DHT22;29174;44.640;10.896;2024-03-02T17:42:10;20.20;93.70
43579;DHT22;29174;44.640;10.896;2024-03-02T17:44:36;20.20;93.60
43579;DHT22;29174;44.640;10.896;2024-03-02T17:47:01;20.20;93.20
43579;DHT22;29174;44.640;10.896;2024-03-02T17:49:27;20.30;93.30
43579;DHT22;29174;44.640;10.896;2024-03-02T17:51:52;20.30;92.80
43579;DHT22;29174;44.640;10.896;2024-03-02T17:54:18;20.30;93.00
43579;DHT22;29174;44.640;10.896;2024-03-02T17:56:43;20.40;92.60
43579;DHT22;29174;44.640;10.896;2024-03-02T17:59:09;20.40;92.50
43579;DHT22;29174;44.640;10.896;2024-03-02T18:01:35;20.40;92.20
43579;DHT22;29174;44.640;10.896;2024-03-02T18:04:00;20.40;92.30
43579;DHT22;29174;44.640;10.896;2024-03-02T18:06:26;20.30;80.10
43579;DHT22;29174;44.640;10.896;2024-03-02T18:08:52;20.10;90.00
43579;DHT22;29174;44.640;10.896;2024-03-02T18:11:17;20.10;91.30
43579;DHT22;29174;44.640;10.896;2024-03-02T18:13:43;20.00;91.50
43579;DHT22;29174;44.640;10.896;2024-03-02T18:16:11;20.20;91.60
43579;DHT22;29174;44.640;10.896;2024-03-02T18:18:37;20.20;91.30
43579;DHT22;29174;44.640;10.896;2024-03-02T18:21:03;20.30;91.40
43579;DHT22;29174;44.640;10.896;2024-03-02T18:23:28;20.30;91.40
43579;DHT22;29174;44.640;10.896;2024-03-02T18:25:54;20.30;91.40
43579;DHT22;29174;44.640;10.896;2024-03-02T18:28:20;20.40;91.60
43579;DHT22;29174;44.640;10.896;2024-03-02T18:30:46;20.40;91.40
43579;DHT22;29174;44.640;10.896;2024-03-02T18:33:11;20.40;90.70
43579;DHT22;29174;44.640;10.896;2024-03-02T18:35:37;20.40;91.30
43579;DHT22;29174;44.640;10.896;2024-03-02T18:38:02;20.40;91.30
43579;DHT22;29174;44.640;10.896;2024-03-02T18:40:29;20.40;91.40
43579;DHT22;29174;44.640;10.896;2024-03-02T18:42:54;20.50;91.40
43579;DHT22;29174;44.640;10.896;2024-03-02T18:45:20;20.50;91.50
43579;DHT22;29174;44.640;10.896;2024-03-02T18:47:46;20.50;91.40
43579;DHT22;29174;44.640;10.896;2024-03-02T18:50:11;20.50;91.40
43579;DHT22;29174;44.640;10.896;2024-03-02T18:52:37;20.50;91.60
43579;DHT22;29174;44.640;10.896;2024-03-02T18:55:03;20.50;92.30
43579;DHT22;29174;44.640;10.896;2024-03-02T18:57:29;20.50;91.80
43579;DHT22;29174;44.640;10.896;2024-03-02T18:59:55;20.60;93.00
43579;DHT22;29174;44.640;10.896;2024-03-02T19:02:21;20.50;92.80
43579;DHT22;29174;44.640;10.896;2024-03-02T19:04:46;20.60;93.60
43579;DHT22;29174;44.640;10.896;2024-03-02T19:07:12;20.50;93.60
43579;DHT22;29174;44.640;10.896;2024-03-02T19:09:39;20.60;94.10
43579;DHT22;29174;44.640;10.896;2024-03-02T19:12:05;20.60;94.50
43579;DHT22;29174;44.640;10.896;2024-03-02T19:14:30;20.60;94.90
43579;DHT22;29174;44.640;10.896;2024-03-02T19:16:56;20.60;94.90
43579;DHT22;29174;44.640;10.896;2024-03-02T19:19:21;20.60;95.00
43579;DHT22;29174;44.640;10.896;2024-03-02T19:21:47;20.60;95.10
43579;DHT22;29174;44.640;10.896;2024-03-02T19:24:12;20.60;95.30
43579;DHT22;29174;44.640;10.896;2024-03-02T19:26:38;20.60;95.10
43579;DHT22;29174;44.640;10.896;2024-03-02T19:29:03;20.70;95.40
43579;DHT22;29174;44.640;10.896;2024-03-02T19:31:29;20.70;94.40
43579;DHT22;29174;44.640;10.896;2024-03-02T19:33:54;20.70;94.90
43579;DHT22;29174;44.640;10.896;2024-03-02T19:41:12;20.70;94.70
43579;DHT22;29174;44.640;10.896;2024-03-02T19:43:37;20.60;94.90
43579;DHT22;29174;44.640;10.896;2024-03-02T19:46:03;20.60;95.10
43579;DHT22;29174;44.640;10.896;2024-03-02T19:48:29;20.60;95.10
43579;DHT22;29174;44.640;10.896;2024-03-02T19:50:57;20.50;95.20
43579;DHT22;29174;44.640;10.896;2024-03-02T19:53:23;20.50;95.30
43579;DHT22;29174;44.640;10.896;2024-03-02T19:55:57;20.50;95.40
43579;DHT22;29174;44.640;10.896;2024-03-02T19:58:23;20.50;95.00
43579;DHT22;29174;44.640;10.896;2024-03-02T20:00:50;20.50;95.30
43579;DHT22;29174;44.640;10.896;2024-03-02T20:03:15;20.50;95.20
43579;DHT22;29174;44.640;10.896;2024-03-02T20:05:42;20.50;95.20
43579;DHT22;29174;44.640;10.896;2024-03-02T20:08:08;20.40;95.20
43579;DHT22;29174;44.640;10.896;2024-03-02T20:10:33;20.40;95.30
43579;DHT22;29174;44.640;10.896;2024-03-02T20:12:59;20.40;95.00
43579;DHT22;29174;44.640;10.896;2024-03-02T20:15:26;20.40;95.70
43579;DHT22;29174;44.640;10.896;2024-03-02T20:17:52;20.50;95.40
43579;DHT22;29174;44.640;10.896;2024-03-02T20:20:18;20.50;94.80
43579;DHT22;29174;44.640;10.896;2024-03-02T20:22:43;20.50;94.40
43579;DHT22;29174;44.640;10.896;2024-03-02T20:25:09;20.30;84.90
43579;DHT22;29174;44.640;10.896;2024-03-02T20:27:37;20.20;92.80
43579;DHT22;29174;44.640;10.896;2024-03-02T20:30:03;20.20;93.20
43579;DHT22;29174;44.640;10.896;2024-03-02T20:32:31;20.20;93.00
43579;DHT22;29174;44.640;10.896;2024-03-02T20:34:57;20.30;93.80
43579;DHT22;29174;44.640;10.896;2024-03-02T20:37:23;20.20;93.90
43579;DHT22;29174;44.640;10.896;2024-03-02T20:39:52;20.40;93.90
43579;DHT22;29174;44.640;10.896;2024-03-02T20:42:24;20.40;93.60
43579;DHT22;29174;44.640;10.896;2024-03-02T20:44:51;20.40;93.30
43579;DHT22;29174;44.640;10.896;2024-03-02T20:47:16;20.40;93.80
43579;DHT22;29174;44.640;10.896;2024-03-02T20:49:42;20.40;94.10
43579;DHT22;29174;44.640;10.896;2024-03-02T20:52:10;20.40;94.10
43579;DHT22;29174;44.640;10.896;2024-03-02T20:54:36;20.40;94.00
43579;DHT22;29174;44.640;10.896;2024-03-02T20:57:02;20.40;94.10
43579;DHT22;29174;44.640;10.896;2024-03-02T20:59:34;20.40;94.10
43579;DHT22;29174;44.640;10.896;2024-03-02T21:02:00;20.40;93.90
43579;DHT22;29174;44.640;10.896;2024-03-02T21:04:26;20.30;94.30
43579;DHT22;29174;44.640;10.896;2024-03-02T21:06:51;20.30;93.90
43579;DHT22;29174;44.640;10.896;2024-03-02T21:09:17;20.30;94.10
43579;DHT22;29174;44.640;10.896;2024-03-02T21:11:43;20.30;94.20
43579;DHT22;29174;44.640;10.896;2024-03-02T21:14:10;20.20;94.30
43579;DHT22;29174;44.640;10.896;2024-03-02T21:16:35;20.20;94.30
43579;DHT22;29174;44.640;10.896;2024-03-02T21:19:01;20.10;94.30
43579;DHT22;29174;44.640;10.896;2024-03-02T21:21:27;20.20;94.00
43579;DHT22;29174;44.640;10.896;2024-03-02T21:23:53;20.10;94.00
43579;DHT22;29174;44.640;10.896;2024-03-02T21:26:19;20.10;94.00
43579;DHT22;29174;44.640;10.896;2024-03-02T21:28:45;20.10;93.90
43579;DHT22;29174;44.640;10.896;2024-03-02T21:31:16;20.10;93.70
43579;DHT22;29174;44.640;10.896;2024-03-02T21:33:42;20.00;93.80
43579;DHT22;29174;44.640;10.896;2024-03-02T21:36:08;20.00;92.60
43579;DHT22;29174;44.640;10.896;2024-03-02T21:38:33;20.00;94.10
43579;DHT22;29174;44.640;10.896;2024-03-02T21:41:00;20.00;94.20
43579;DHT22;29174;44.640;10.896;2024-03-02T21:43:25;20.00;94.10
43579;DHT22;29174;44.640;10.896;2024-03-02T21:45:56;20.00;94.20
43579;DHT22;29174;44.640;10.896;2024-03-02T21:48:22;20.00;94.10
43579;DHT22;29174;44.640;10.896;2024-03-02T21:50:47;19.80;93.90
43579;DHT22;29174;44.640;10.896;2024-03-02T21:53:13;20.00;93.90
43579;DHT22;29174;44.640;10.896;2024-03-02T21:55:38;20.00;93.80
43579;DHT22;29174;44.640;10.896;2024-03-02T21:58:04;20.10;93.80
43579;DHT22;29174;44.640;10.896;2024-03-02T22:00:30;20.10;93.70
43579;DHT22;29174;44.640;10.896;2024-03-02T22:02:55;20.10;93.70
43579;DHT22;29174;44.640;10.896;2024-03-02T22:05:21;20.10;93.80
43579;DHT22;29174;44.640;10.896;2024-03-02T22:07:47;20.00;93.80
43579;DHT22;29174;44.640;10.896;2024-03-02T22:10:13;20.10;93.60
43579;DHT22;29174;44.640;10.896;2024-03-02T22:12:39;20.10;93.00
43579;DHT22;29174;44.640;10.896;2024-03-02T22:15:05;20.10;93.20
43579;DHT22;29174;44.640;10.896;2024-03-02T22:17:30;20.00;93.40
43579;DHT22;29174;44.640;10.896;2024-03-02T22:19:56;20.00;93.40
43579;DHT22;29174;44.640;10.896;2024-03-02T22:24:51;20.00;92.90
43579;DHT22;29174;44.640;10.896;2024-03-02T22:27:16;20.00;93.00
43579;DHT22;29174;44.640;10.896;2024-03-02T22:29:42;20.00;92.30
43579;DHT22;29174;44.640;10.896;2024-03-02T22:32:07;20.00;92.30
43579;DHT22;29174;44.640;10.896;2024-03-02T22:34:33;20.00;92.30
43579;DHT22;29174;44.640;10.896;2024-03-02T22:37:00;20.00;92.00
43579;DHT22;29174;44.640;10.896;2024-03-02T22:39:25;19.90;92.20
43579;DHT22;29174;44.640;10.896;2024-03-02T22:41:51;19.90;92.60
43579;DHT22;29174;44.640;10.896;2024-03-02T22:44:17;19.80;92.20
43579;DHT22;29174;44.640;10.896;2024-03-02T22:46:43;19.90;92.00
43579;DHT22;29174;44.640;10.896;2024-03-02T22:49:09;19.90;92.10
43579;DHT22;29174;44.640;10.896;2024-03-02T22:51:35;19.90;92.30
43579;DHT22;29174;44.640;10.896;2024-03-02T22:54:00;19.90;92.10
43579;DHT22;29174;44.640;10.896;2024-03-02T22:56:26;19.80;91.90
43579;DHT22;29174;44.640;10.896;2024-03-02T22:58:51;20.00;91.90
43579;DHT22;29174;44.640;10.896;2024-03-02T23:01:17;19.90;91.90
43579;DHT22;29174;44.640;10.896;2024-03-02T23:03:46;19.90;91.90
43579;DHT22;29174;44.640;10.896;2024-03-02T23:06:12;19.90;92.10
43579;DHT22;29174;44.640;10.896;2024-03-02T23:08:38;19.90;92.00
43579;DHT22;29174;44.640;10.896;2024-03-02T23:11:03;19.90;92.00
43579;DHT22;29174;44.640;10.896;2024-03-02T23:13:29;19.80;91.00
43579;DHT22;29174;44.640;10.896;2024-03-02T23:15:55;19.80;91.00
43579;DHT22;29174;44.640;10.896;2024-03-02T23:18:20;19.80;91.30
43579;DHT22;29174;44.640;10.896;2024-03-02T23:20:46;19.70;91.20
43579;DHT22;29174;44.640;10.896;2024-03-02T23:23:12;19.60;90.80
43579;DHT22;29174;44.640;10.896;2024-03-02T23:25:37;19.60;90.70
43579;DHT22;29174;44.640;10.896;2024-03-02T23:28:03;19.60;91.00
43579;DHT22;29174;44.640;10.896;2024-03-02T23:30:29;19.60;90.50
43579;DHT22;29174;44.640;10.896;2024-03-02T23:32:55;19.50;91.60
43579;DHT22;29174;44.640;10.896;2024-03-02T23:35:20;19.50;92.20
43579;DHT22;29174;44.640;10.896;2024-03-02T23:37:47;19.50;92.50
43579;DHT22;29174;44.640;10.896;2024-03-02T23:40:12;19.50;91.60
43579;DHT22;29174;44.640;10.896;2024-03-02T23:42:41;19.50;91.50
43579;DHT22;29174;44.640;10.896;2024-03-02T23:45:07;19.50;92.20
43579;DHT22;29174;44.640;10.896;2024-03-02T23:47:33;19.50;92.30
43579;DHT22;29174;44.640;10.896;2024-03-02T23:49:58;19.50;92.10
43579;DHT22;29174;44.640;10.896;2024-03-02T23:52:24;19.50;92.20
43579;DHT22;29174;44.640;10.896;2024-03-02T23:54:49;19.50;91.80
43579;DHT22;29174;44.640;10.896;2024-03-02T23:57:15;19.50;91.60
43579;DHT22;29174;44.640;10.896;2024-03-02T23:59:41;19.50;91.80
